Time;durP1;ratioP1;P1;durP2;ratioP2;P2;SDS_P1;SDS_P2;PMS_P1;PMS_P2;Temp;Humidity;BMP_temperature;BMP_pressure;BME280_temperature;BME280_humidity;BME280_pressure;Samples;Min_cycle;Max_cycle;Signal;HPM_P1;HPM_P2
2022/06/14 00:00:53;;;;;;;12.80;3.45;;;11.10;99.90;;;;;;5022725;28;20077;-66
2022/06/14 00:03:34;;;;;;;11.77;3.03;;;11.10;99.90;;;;;;5003559;28;20065;-65
2022/06/14 00:06:21;;;;;;;9.77;3.47;;;11.10;99.90;;;;;;5006962;28;20046;-66
2022/06/14 00:08:47;;;;;;;13.00;3.67;;;11.10;99.90;;;;;;5005376;28;20041;-66
2022/06/14 00:11:34;;;;;;;12.60;3.00;;;11.00;99.90;;;;;;5020559;28;20052;-66
2022/06/14 00:14:02;;;;;;;10.25;3.13;;;11.00;99.90;;;;;;5023634;28;20100;-66
2022/06/14 00:16:29;;;;;;;10.07;3.45;;;11.00;99.90;;;;;;5023195;28;20038;-66
2022/06/14 00:18:55;;;;;;;7.50;2.80;;;11.00;99.90;;;;;;5020868;28;20045;-66
2022/06/14 00:21:21;;;;;;;14.18;3.30;;;11.00;99.90;;;;;;5022539;28;20053;-66
2022/06/14 00:23:47;;;;;;;11.82;3.55;;;11.00;99.90;;;;;;5005503;28;20037;-66
2022/06/14 00:26:13;;;;;;;15.77;3.47;;;11.00;99.90;;;;;;5020912;28;20107;-66
2022/06/14 00:28:41;;;;;;;10.60;3.40;;;11.00;99.90;;;;;;5023663;28;20053;-66
2022/06/14 00:31:13;;;;;;;10.63;3.17;;;11.00;99.90;;;;;;5021966;28;20045;-66
2022/06/14 00:33:40;;;;;;;11.68;3.00;;;11.00;99.90;;;;;;5023856;28;20493;-66
2022/06/14 00:36:09;;;;;;;10.30;3.15;;;11.00;99.90;;;;;;5012654;28;20048;-66
2022/06/14 00:38:36;;;;;;;10.80;3.25;;;11.00;99.90;;;;;;5011876;28;20045;-66
2022/06/14 00:41:03;;;;;;;11.93;2.85;;;11.00;99.90;;;;;;5005414;28;20049;-66
2022/06/14 00:43:31;;;;;;;10.05;3.05;;;11.00;99.90;;;;;;5000271;28;20069;-66
2022/06/14 00:46:35;;;;;;;8.52;2.95;;;10.90;99.90;;;;;;5003090;28;20069;-66
2022/06/14 00:49:11;;;;;;;14.13;3.33;;;10.90;99.90;;;;;;4999197;28;20065;-66
2022/06/14 00:51:55;;;;;;;14.38;3.38;;;10.90;99.90;;;;;;5031792;28;20080;-66
2022/06/14 00:54:25;;;;;;;9.02;2.88;;;10.90;99.90;;;;;;5010631;28;20052;-66
2022/06/14 00:57:06;;;;;;;9.68;2.92;;;10.80;99.90;;;;;;5027822;28;20111;-66
2022/06/14 00:59:34;;;;;;;12.18;3.03;;;10.80;99.90;;;;;;5026700;28;20053;-66
2022/06/14 01:02:21;;;;;;;11.55;3.15;;;10.70;99.90;;;;;;5021711;28;20049;-66
2022/06/14 01:04:48;;;;;;;11.77;3.40;;;10.70;99.90;;;;;;5026556;28;20049;-66
2022/06/14 01:07:18;;;;;;;10.13;3.42;;;10.70;99.90;;;;;;5008220;28;20103;-66
2022/06/14 01:10:00;;;;;;;9.80;3.40;;;10.70;99.90;;;;;;5002423;28;20676;-66
2022/06/14 01:12:31;;;;;;;13.90;4.07;;;10.70;99.90;;;;;;5044110;28;20042;-66
2022/06/14 01:15:09;;;;;;;13.13;3.42;;;10.70;99.90;;;;;;5025997;28;20060;-66
2022/06/14 01:17:41;;;;;;;10.90;3.13;;;10.60;99.90;;;;;;5013262;28;20049;-66
2022/06/14 01:20:09;;;;;;;13.77;3.80;;;10.60;99.90;;;;;;5006326;28;20133;-66
2022/06/14 01:22:36;;;;;;;9.95;2.90;;;10.60;99.90;;;;;;5012168;28;20125;-66
2022/06/14 01:25:02;;;;;;;10.95;3.15;;;10.60;99.90;;;;;;5013619;28;20045;-66
2022/06/14 01:27:31;;;;;;;10.43;3.13;;;10.60;99.90;;;;;;5007589;28;20049;-67
2022/06/14 01:30:22;;;;;;;11.02;3.72;;;10.60;99.90;;;;;;5016835;28;20057;-66
2022/06/14 01:32:57;;;;;;;12.35;3.60;;;10.60;99.90;;;;;;4988413;28;20048;-65
2022/06/14 01:35:28;;;;;;;10.15;3.25;;;10.60;99.90;;;;;;5008708;28;20610;-66
2022/06/14 01:37:57;;;;;;;9.85;3.08;;;10.60;99.90;;;;;;5006353;28;20208;-65
2022/06/14 01:40:44;;;;;;;13.60;2.90;;;10.60;99.90;;;;;;5025752;28;20063;-66
2022/06/14 01:43:29;;;;;;;15.90;3.20;;;10.70;99.90;;;;;;5026335;28;20076;-66
2022/06/14 01:46:16;;;;;;;10.48;3.13;;;10.70;99.90;;;;;;5001567;28;20064;-66
2022/06/14 01:52:02;;;;;;;14.60;3.92;;;10.70;99.90;;;;;;5001067;28;20077;-66
2022/06/14 01:54:40;;;;;;;14.07;3.38;;;10.70;99.90;;;;;;5024728;28;20604;-66
2022/06/14 01:57:42;;;;;;;12.82;3.08;;;10.70;99.90;;;;;;5022656;28;20045;-67
2022/06/14 02:00:17;;;;;;;14.80;3.88;;;10.80;99.90;;;;;;5024262;28;20045;-66
2022/06/14 02:02:45;;;;;;;11.18;3.88;;;10.70;99.90;;;;;;5018569;28;20042;-66
2022/06/14 02:05:11;;;;;;;11.02;3.60;;;10.70;99.90;;;;;;5007817;28;20052;-65
2022/06/14 02:07:55;;;;;;;9.63;3.03;;;10.70;99.90;;;;;;5013584;28;20053;-66
2022/06/14 02:10:27;;;;;;;15.25;3.58;;;10.70;99.90;;;;;;5016822;28;20115;-66
2022/06/14 02:13:08;;;;;;;11.07;3.53;;;10.70;99.90;;;;;;5024907;28;20092;-66
2022/06/14 02:16:03;;;;;;;13.40;3.17;;;10.70;99.90;;;;;;5021435;28;20049;-66
2022/06/14 02:18:39;;;;;;;12.85;3.40;;;10.60;99.90;;;;;;5026038;28;20065;-66
2022/06/14 02:21:26;;;;;;;9.00;3.78;;;10.60;99.90;;;;;;5023465;28;20050;-66
2022/06/14 02:24:14;;;;;;;11.15;3.60;;;10.60;99.90;;;;;;5029523;28;20045;-66
2022/06/14 02:26:49;;;;;;;10.80;3.90;;;10.60;99.90;;;;;;5021227;28;20060;-66
2022/06/14 02:29:25;;;;;;;10.25;3.55;;;10.60;99.90;;;;;;5025762;28;20055;-67
2022/06/14 02:32:00;;;;;;;9.48;3.38;;;10.60;99.90;;;;;;5024632;28;20116;-66
2022/06/14 02:34:35;;;;;;;10.15;3.47;;;10.60;99.90;;;;;;5000427;28;20095;-67
2022/06/14 02:37:12;;;;;;;11.23;3.33;;;10.60;99.90;;;;;;5001830;28;20042;-69
2022/06/14 02:40:07;;;;;;;11.48;3.78;;;10.60;99.90;;;;;;5017662;28;20120;-66
2022/06/14 02:42:41;;;;;;;11.88;4.15;;;10.50;99.90;;;;;;4996537;28;20107;-66
2022/06/14 02:45:21;;;;;;;9.55;3.63;;;10.60;99.90;;;;;;5019456;28;20049;-66
2022/06/14 02:48:04;;;;;;;17.10;4.07;;;10.50;99.90;;;;;;5029293;28;20049;-67
2022/06/14 02:51:04;;;;;;;16.17;4.15;;;10.50;99.90;;;;;;5014115;28;20063;-66
2022/06/14 02:53:33;;;;;;;11.55;4.07;;;10.50;99.90;;;;;;5008029;28;20100;-66
2022/06/14 02:56:11;;;;;;;11.77;3.75;;;10.40;99.90;;;;;;5001679;28;20037;-66
2022/06/14 02:58:56;;;;;;;10.18;3.50;;;10.50;99.90;;;;;;5002020;28;20049;-66
2022/06/14 03:01:45;;;;;;;10.38;3.72;;;10.50;99.90;;;;;;5017166;28;20046;-66
2022/06/14 03:04:22;;;;;;;9.25;4.00;;;10.50;99.90;;;;;;5003448;28;20060;-66
2022/06/14 03:07:09;;;;;;;10.63;3.55;;;10.40;99.90;;;;;;5028643;28;20520;-66
2022/06/14 03:09:36;;;;;;;12.43;3.85;;;10.40;99.90;;;;;;5004273;28;20069;-66
2022/06/14 03:12:08;;;;;;;13.07;3.90;;;10.40;99.90;;;;;;5010593;28;20052;-67
2022/06/14 03:14:53;;;;;;;11.40;4.03;;;10.40;99.90;;;;;;4998983;28;20401;-66
2022/06/14 03:17:30;;;;;;;12.88;4.35;;;10.40;99.90;;;;;;5011975;28;20045;-66
2022/06/14 03:20:17;;;;;;;12.75;3.83;;;10.40;99.90;;;;;;5025575;28;20060;-66
2022/06/14 03:22:52;;;;;;;9.00;3.92;;;10.40;99.90;;;;;;5015250;28;20505;-67
2022/06/14 03:25:28;;;;;;;7.85;3.63;;;10.40;99.90;;;;;;5006497;28;20076;-67
2022/06/14 03:27:56;;;;;;;15.75;3.95;;;10.40;99.90;;;;;;5022205;28;20038;-66
2022/06/14 03:30:29;;;;;;;9.13;3.40;;;10.40;99.90;;;;;;5000660;28;20042;-67
2022/06/14 03:33:29;;;;;;;12.43;3.53;;;10.40;99.90;;;;;;5001853;28;20069;-66
2022/06/14 03:35:55;;;;;;;15.15;3.90;;;10.50;99.90;;;;;;5028551;28;20037;-66
2022/06/14 03:38:35;;;;;;;9.60;3.55;;;10.40;99.90;;;;;;5005692;28;20045;-66
2022/06/14 03:41:02;;;;;;;9.00;3.28;;;10.50;99.90;;;;;;5000631;28;20120;-68
2022/06/14 03:43:30;;;;;;;11.40;3.85;;;10.50;99.90;;;;;;5008058;28;20042;-66
2022/06/14 03:46:12;;;;;;;8.13;3.15;;;10.50;99.90;;;;;;5020176;28;20105;-66
2022/06/14 03:48:41;;;;;;;14.35;4.38;;;10.40;99.90;;;;;;5024615;28;20074;-66
2022/06/14 03:51:31;;;;;;;10.38;3.42;;;10.40;99.90;;;;;;5001583;28;20041;-67
2022/06/14 03:54:12;;;;;;;11.68;3.95;;;10.30;99.90;;;;;;5020877;28;20046;-66
2022/06/14 03:56:49;;;;;;;9.43;3.47;;;10.30;99.90;;;;;;5000907;28;20041;-66
2022/06/14 03:59:37;;;;;;;10.68;3.38;;;10.40;99.90;;;;;;5004982;28;20053;-66
2022/06/14 04:02:20;;;;;;;15.02;4.03;;;10.40;99.90;;;;;;5021325;28;20046;-67
2022/06/14 04:05:02;;;;;;;8.18;3.63;;;10.40;99.90;;;;;;5004874;28;20087;-68
2022/06/14 04:07:44;;;;;;;14.38;4.10;;;10.50;99.90;;;;;;5009717;28;20103;-67
2022/06/14 04:10:39;;;;;;;7.78;3.40;;;10.60;99.90;;;;;;5019334;28;20096;-67
2022/06/14 04:13:46;;;;;;;9.98;3.30;;;10.70;99.90;;;;;;5040422;28;20132;-66
2022/06/14 04:16:36;;;;;;;10.02;3.50;;;10.90;99.90;;;;;;5012740;28;20044;-66
2022/06/14 04:19:06;;;;;;;14.70;5.05;;;11.10;99.90;;;;;;5017057;28;20123;-66
2022/06/14 04:21:53;;;;;;;8.18;3.95;;;11.40;99.90;;;;;;5018177;28;20629;-66
2022/06/14 04:24:32;;;;;;;11.75;3.80;;;11.90;99.90;;;;;;5025066;28;20069;-66
2022/06/14 04:27:18;;;;;;;11.05;4.03;;;12.10;99.90;;;;;;5004677;28;20588;-66
2022/06/14 04:29:58;;;;;;;11.52;4.07;;;12.50;99.90;;;;;;5006541;28;20052;-67
2022/06/14 04:32:44;;;;;;;12.30;4.05;;;12.80;99.90;;;;;;5028623;28;20527;-67
2022/06/14 04:35:19;;;;;;;12.48;4.30;;;13.00;99.90;;;;;;5023599;28;20048;-67
2022/06/14 04:37:59;;;;;;;10.98;4.15;;;13.00;99.90;;;;;;5004753;28;20037;-66
2022/06/14 04:40:46;;;;;;;12.38;4.32;;;12.90;99.90;;;;;;5001935;28;20096;-66
2022/06/14 04:43:24;;;;;;;13.60;4.25;;;12.70;99.90;;;;;;5035282;28;20033;-67
2022/06/14 04:45:59;;;;;;;11.02;4.07;;;12.50;99.90;;;;;;5022296;28;20087;-66
2022/06/14 04:48:52;;;;;;;10.25;4.18;;;12.40;99.90;;;;;;5026083;28;20050;-66
2022/06/14 04:51:21;;;;;;;6.50;3.70;;;12.30;99.90;;;;;;5028011;28;20033;-66
2022/06/14 04:54:04;;;;;;;9.35;4.13;;;12.30;99.90;;;;;;5024359;28;20781;-66
2022/06/14 04:56:56;;;;;;;10.40;3.80;;;12.30;99.90;;;;;;5015610;28;20116;-67
2022/06/14 04:59:36;;;;;;;9.13;3.63;;;12.30;99.90;;;;;;5005814;28;20141;-67
2022/06/14 05:02:11;;;;;;;9.38;4.30;;;12.40;99.90;;;;;;5019017;28;20083;-66
2022/06/14 05:04:45;;;;;;;13.45;4.18;;;12.40;99.90;;;;;;5017080;28;20378;-65
2022/06/14 05:07:17;;;;;;;9.95;3.72;;;12.40;99.90;;;;;;5019463;28;20033;-66
2022/06/14 05:10:01;;;;;;;8.13;3.70;;;12.60;99.90;;;;;;5020482;28;20072;-66
2022/06/14 05:12:35;;;;;;;12.73;4.22;;;12.60;99.90;;;;;;4995189;28;20045;-66
2022/06/14 05:15:35;;;;;;;15.30;4.10;;;12.60;99.90;;;;;;5024389;28;20119;-67
2022/06/14 05:18:06;;;;;;;12.05;4.22;;;12.70;99.90;;;;;;5021905;28;20048;-66
2022/06/14 05:20:41;;;;;;;11.80;3.85;;;12.70;99.90;;;;;;5016685;28;21627;-65
2022/06/14 05:23:16;;;;;;;13.82;4.13;;;12.80;99.90;;;;;;5015750;28;20042;-66
2022/06/14 05:25:54;;;;;;;9.23;3.47;;;13.00;99.90;;;;;;5020332;28;20056;-66
2022/06/14 05:28:53;;;;;;;8.65;3.25;;;13.10;99.90;;;;;;5024751;28;20046;-65
2022/06/14 05:31:30;;;;;;;10.32;3.65;;;13.20;99.90;;;;;;5019379;28;20054;-66
2022/06/14 05:34:09;;;;;;;12.95;3.83;;;13.40;99.90;;;;;;5026513;28;20212;-66
2022/06/14 05:36:51;;;;;;;7.78;3.35;;;13.50;99.90;;;;;;5006217;28;20057;-67
2022/06/14 05:39:30;;;;;;;8.00;3.53;;;13.70;99.90;;;;;;5007775;28;20048;-67
2022/06/14 05:42:04;;;;;;;8.98;3.45;;;13.80;99.90;;;;;;5021781;28;20093;-66
2022/06/14 05:44:35;;;;;;;7.18;3.05;;;14.00;99.90;;;;;;5018528;28;20050;-66
2022/06/14 05:47:18;;;;;;;6.05;3.08;;;14.10;99.90;;;;;;4995736;28;20792;-67
2022/06/14 05:49:52;;;;;;;9.25;3.30;;;14.20;99.90;;;;;;5013172;28;20049;-66
2022/06/14 05:52:25;;;;;;;10.55;2.90;;;14.40;99.90;;;;;;4996747;28;20037;-67
2022/06/14 05:55:11;;;;;;;9.65;2.90;;;14.50;99.90;;;;;;5013241;28;20050;-67
2022/06/14 05:57:42;;;;;;;9.45;2.90;;;14.60;99.90;;;;;;5019112;28;20042;-67
2022/06/14 06:00:23;;;;;;;10.02;2.75;;;14.60;99.90;;;;;;5022079;28;20060;-66
2022/06/14 06:03:04;;;;;;;7.72;2.60;;;14.70;99.90;;;;;;5024233;28;20045;-68
2022/06/14 06:05:35;;;;;;;9.02;2.95;;;14.90;99.90;;;;;;5015777;28;20191;-68
2022/06/14 06:08:25;;;;;;;7.43;2.28;;;15.00;99.90;;;;;;5027336;28;20055;-67
2022/06/14 06:10:56;;;;;;;5.65;2.08;;;15.10;99.90;;;;;;5000651;28;20520;-66
2022/06/14 06:13:33;;;;;;;9.82;2.67;;;15.20;99.90;;;;;;5003141;28;20048;-67
2022/06/14 06:16:08;;;;;;;6.25;2.20;;;15.40;99.90;;;;;;5003924;28;20046;-67
2022/06/14 06:18:44;;;;;;;6.88;2.58;;;15.50;99.90;;;;;;4985732;28;20052;-67
2022/06/14 06:21:49;;;;;;;8.25;2.40;;;15.50;99.90;;;;;;4984159;28;20073;-67
2022/06/14 06:24:55;;;;;;;7.93;2.40;;;15.50;99.90;;;;;;4987363;28;20073;-67
2022/06/14 06:27:46;;;;;;;7.47;2.67;;;15.60;99.90;;;;;;4998360;28;20060;-67
2022/06/14 06:30:19;;;;;;;6.45;2.30;;;15.80;99.90;;;;;;4998390;28;20042;-67
2022/06/14 06:32:45;;;;;;;8.88;2.55;;;15.80;99.90;;;;;;4981233;28;20041;-67
2022/06/14 06:35:12;;;;;;;8.70;2.80;;;15.90;99.90;;;;;;5006373;28;20476;-67
2022/06/14 06:37:53;;;;;;;7.75;2.75;;;16.00;99.90;;;;;;4980290;28;20042;-67
2022/06/14 06:40:23;;;;;;;6.88;2.50;;;16.10;99.90;;;;;;4997532;28;20038;-67
2022/06/14 06:42:59;;;;;;;4.65;1.88;;;16.10;99.90;;;;;;4989867;28;20497;-65
2022/06/14 06:45:35;;;;;;;7.78;2.60;;;16.30;99.90;;;;;;4967688;28;20041;-65
2022/06/14 06:48:06;;;;;;;11.23;2.55;;;16.40;99.90;;;;;;4994981;28;20502;-69
2022/06/14 06:50:43;;;;;;;9.75;2.75;;;16.50;99.90;;;;;;4986557;28;20034;-65
2022/06/14 06:53:17;;;;;;;8.05;2.67;;;16.60;99.90;;;;;;4980052;28;20054;-65
2022/06/14 06:56:01;;;;;;;5.10;2.20;;;16.70;99.90;;;;;;4987453;28;20125;-65
2022/06/14 06:58:30;;;;;;;8.27;3.03;;;16.70;99.90;;;;;;5001275;28;20056;-65
2022/06/14 07:00:58;;;;;;;5.25;2.42;;;16.80;99.90;;;;;;5002272;28;20054;-66
2022/06/14 07:03:30;;;;;;;7.70;2.10;;;16.90;99.90;;;;;;4997716;28;20046;-66
2022/06/14 07:06:00;;;;;;;4.50;2.30;;;17.10;99.90;;;;;;4979828;28;20050;-66
2022/06/14 07:08:52;;;;;;;7.75;2.28;;;17.20;99.90;;;;;;5000243;28;20037;-66
2022/06/14 07:11:23;;;;;;;6.68;1.90;;;17.50;99.90;;;;;;4973181;28;20046;-65
2022/06/14 07:14:00;;;;;;;3.58;1.30;;;17.60;99.90;;;;;;5001035;28;20057;-66
2022/06/14 07:16:33;;;;;;;5.63;1.58;;;17.60;99.90;;;;;;5001470;28;20050;-66
2022/06/14 07:19:24;;;;;;;2.83;1.63;;;17.40;99.90;;;;;;5002491;28;20072;-65
2022/06/14 07:21:59;;;;;;;5.07;1.80;;;17.20;99.90;;;;;;5006990;28;20076;-66
2022/06/14 07:24:35;;;;;;;6.15;1.80;;;17.20;99.90;;;;;;5020092;28;20042;-66
2022/06/14 07:27:11;;;;;;;5.80;1.88;;;17.30;99.90;;;;;;5004109;28;21815;-70
2022/06/14 07:29:47;;;;;;;3.50;1.60;;;17.50;99.90;;;;;;5002672;28;20033;-67
2022/06/14 07:32:19;;;;;;;5.03;1.85;;;17.70;99.90;;;;;;5012320;28;20095;-66
2022/06/14 07:34:46;;;;;;;8.63;1.95;;;17.70;99.90;;;;;;5002583;28;20129;-66
2022/06/14 07:37:28;;;;;;;7.00;2.05;;;17.70;99.90;;;;;;5014860;28;20090;-66
2022/06/14 07:40:11;;;;;;;5.93;1.50;;;17.60;99.90;;;;;;5023627;28;20041;-67
2022/06/14 07:42:43;;;;;;;5.78;1.60;;;17.50;99.90;;;;;;5024290;28;20291;-65
2022/06/14 07:45:20;;;;;;;5.10;1.75;;;17.40;99.90;;;;;;5000920;28;20042;-67
2022/06/14 07:48:09;;;;;;;7.90;1.75;;;17.50;99.90;;;;;;4999366;28;20045;-65
2022/06/14 07:50:41;;;;;;;6.40;1.95;;;17.40;99.90;;;;;;5001740;28;20053;-66
2022/06/14 07:53:32;;;;;;;4.32;2.08;;;17.60;99.90;;;;;;5020044;28;20041;-66
2022/06/14 07:56:06;;;;;;;5.65;1.70;;;17.80;99.90;;;;;;4985979;28;20049;-65
2022/06/14 07:58:45;;;;;;;6.05;1.70;;;17.90;99.90;;;;;;5001092;28;20688;-67
2022/06/14 08:01:32;;;;;;;7.78;1.90;;;18.00;99.90;;;;;;5000416;28;20469;-66
2022/06/14 08:04:10;;;;;;;7.78;1.63;;;17.90;99.90;;;;;;5007577;28;20045;-66
2022/06/14 08:06:44;;;;;;;5.60;2.35;;;17.90;99.90;;;;;;5019360;28;20073;-65
2022/06/14 08:09:18;;;;;;;4.22;1.80;;;17.90;99.90;;;;;;5007573;28;20034;-66
2022/06/14 08:11:52;;;;;;;3.22;1.38;;;17.90;99.90;;;;;;5003203;28;20044;-66
2022/06/14 08:14:40;;;;;;;6.65;1.65;;;18.00;99.90;;;;;;5014124;28;20052;-66
2022/06/14 08:17:08;;;;;;;2.78;1.35;;;18.00;99.90;;;;;;5010104;28;20144;-66
2022/06/14 08:19:54;;;;;;;6.63;1.98;;;18.30;99.90;;;;;;5022232;28;20068;-65
2022/06/14 08:22:32;;;;;;;6.05;2.10;;;18.70;99.90;;;;;;5016052;28;20129;-66
2022/06/14 08:25:04;;;;;;;5.57;2.33;;;19.10;99.90;;;;;;4999961;28;20072;-66
2022/06/14 08:27:37;;;;;;;5.75;1.95;;;19.20;99.90;;;;;;5001182;28;20628;-66
2022/06/14 08:30:12;;;;;;;4.32;1.70;;;19.30;99.90;;;;;;5014746;28;20128;-65
2022/06/14 08:32:55;;;;;;;9.07;1.77;;;19.40;99.90;;;;;;4998190;28;20054;-66
2022/06/14 08:35:32;;;;;;;6.97;2.13;;;19.40;99.90;;;;;;5021285;28;20124;-65
2022/06/14 08:38:27;;;;;;;4.70;1.80;;;19.40;99.90;;;;;;5007777;28;20041;-66
2022/06/14 08:41:08;;;;;;;5.40;1.50;;;19.10;99.90;;;;;;5017736;28;20095;-67
2022/06/14 08:43:44;;;;;;;5.60;1.80;;;18.90;99.90;;;;;;5028567;28;20045;-66
2022/06/14 08:46:24;;;;;;;6.47;1.55;;;18.80;99.90;;;;;;5023270;28;20045;-66
2022/06/14 08:49:01;;;;;;;5.35;1.80;;;18.70;99.90;;;;;;5023624;28;20053;-66
2022/06/14 08:51:47;;;;;;;5.40;1.85;;;19.00;99.90;;;;;;5018189;28;20050;-66
2022/06/14 08:54:18;;;;;;;5.40;1.92;;;19.10;99.90;;;;;;5030100;28;20048;-66
2022/06/14 08:57:07;;;;;;;5.88;1.95;;;19.50;99.90;;;;;;5008826;28;20524;-66
2022/06/14 09:00:05;;;;;;;5.57;1.85;;;19.90;99.90;;;;;;5000797;28;20057;-66
2022/06/14 09:03:01;;;;;;;6.35;1.48;;;20.30;99.90;;;;;;5005354;28;20069;-66
2022/06/14 09:05:51;;;;;;;3.95;1.83;;;20.50;99.90;;;;;;5024642;28;20046;-66
2022/06/14 09:08:46;;;;;;;4.13;1.30;;;20.40;99.90;;;;;;5014519;28;20041;-66
2022/06/14 09:11:15;;;;;;;4.32;1.35;;;20.00;99.90;;;;;;5023564;28;20129;-66
2022/06/14 09:13:46;;;;;;;4.95;1.30;;;19.60;99.90;;;;;;5015043;28;20045;-66
2022/06/14 09:16:24;;;;;;;5.07;1.60;;;19.40;99.90;;;;;;5017218;28;20378;-66
2022/06/14 09:18:55;;;;;;;5.10;1.67;;;19.20;99.90;;;;;;5005739;28;20324;-68
2022/06/14 09:21:42;;;;;;;4.72;1.80;;;19.00;99.90;;;;;;5021077;28;20057;-68
2022/06/14 09:24:27;;;;;;;7.32;1.67;;;18.90;99.90;;;;;;5022300;28;20099;-68
2022/06/14 09:27:07;;;;;;;3.33;1.52;;;18.90;99.90;;;;;;5020384;28;20431;-69
2022/06/14 09:29:59;;;;;;;4.57;1.48;;;19.10;99.90;;;;;;5007538;28;20053;-69
2022/06/14 09:32:30;;;;;;;5.35;1.90;;;19.50;99.90;;;;;;4990103;28;20058;-68
2022/06/14 09:35:07;;;;;;;5.32;1.52;;;19.90;99.90;;;;;;5022540;28;20058;-68
2022/06/14 09:38:01;;;;;;;6.13;1.50;;;20.40;99.90;;;;;;5021599;28;20057;-68
2022/06/14 09:40:51;;;;;;;3.75;1.40;;;20.70;99.90;;;;;;5020230;28;20133;-67
2022/06/14 09:43:38;;;;;;;3.72;1.48;;;20.80;99.90;;;;;;5018154;28;20045;-68
2022/06/14 09:46:27;;;;;;;4.03;1.63;;;21.10;99.90;;;;;;5019042;28;20383;-68
2022/06/14 09:49:09;;;;;;;4.43;1.52;;;21.10;99.90;;;;;;5019150;28;20484;-68
2022/06/14 09:51:53;;;;;;;3.90;1.48;;;20.90;99.90;;;;;;5002483;28;20075;-68
2022/06/14 09:54:57;;;;;;;6.82;1.85;;;20.50;99.90;;;;;;5003806;28;20041;-68
2022/06/14 09:58:04;;;;;;;4.05;1.67;;;20.10;99.90;;;;;;5003594;28;20041;-68
2022/06/14 10:00:53;;;;;;;6.63;1.92;;;19.70;99.90;;;;;;5011993;28;20143;-67
2022/06/14 10:03:43;;;;;;;3.42;1.75;;;19.40;99.90;;;;;;5005403;28;20425;-68
2022/06/14 10:06:21;;;;;;;4.60;1.50;;;19.30;99.90;;;;;;5024295;28;20050;-68
2022/06/14 10:08:54;;;;;;;4.07;1.70;;;19.40;99.90;;;;;;5021835;28;20041;-67
2022/06/14 10:11:31;;;;;;;5.13;1.65;;;19.50;99.90;;;;;;5018214;28;20048;-67
2022/06/14 10:14:37;;;;;;;4.75;1.80;;;19.90;99.90;;;;;;5003841;28;20455;-66
2022/06/14 10:17:08;;;;;;;5.20;1.60;;;20.00;99.90;;;;;;5000802;28;20042;-67
2022/06/14 10:19:55;;;;;;;3.33;1.60;;;20.00;99.90;;;;;;5021543;28;20146;-66
2022/06/14 10:23:07;;;;;;;9.90;2.67;;;20.20;99.90;;;;;;5022556;28;20053;-66
2022/06/14 10:29:08;;;;;;;5.28;2.03;;;21.10;99.90;;;;;;5024258;28;20041;-68
2022/06/14 10:31:45;;;;;;;3.65;1.67;;;21.30;99.90;;;;;;5022527;28;20053;-68
2022/06/14 10:34:32;;;;;;;3.90;1.88;;;21.40;99.90;;;;;;5002408;28;20595;-68
2022/06/14 10:37:10;;;;;;;8.38;2.05;;;21.30;99.90;;;;;;5003077;28;20049;-67
2022/06/14 10:40:08;;;;;;;5.75;1.65;;;21.20;99.90;;;;;;5002087;28;20041;-69
2022/06/14 10:42:39;;;;;;;5.80;1.98;;;21.40;99.90;;;;;;5008631;28;20037;-68
2022/06/14 10:45:18;;;;;;;5.68;2.25;;;21.70;99.90;;;;;;5020458;28;20045;-69
2022/06/14 10:48:02;;;;;;;6.38;1.70;;;21.50;99.90;;;;;;5019785;28;20221;-69
2022/06/14 10:51:10;;;;;;;4.57;1.80;;;21.20;99.90;;;;;;5023511;28;20057;-69
2022/06/14 10:54:08;;;;;;;6.07;2.35;;;20.80;99.90;;;;;;4981631;28;20379;-69
2022/06/14 10:57:08;;;;;;;4.43;1.70;;;20.50;99.90;;;;;;5021634;28;20042;-68
2022/06/14 10:59:58;;;;;;;5.20;1.95;;;20.40;99.90;;;;;;5009323;28;20436;-68
2022/06/14 11:02:36;;;;;;;5.47;1.55;;;20.30;99.90;;;;;;5007849;28;20205;-68
2022/06/14 11:05:34;;;;;;;8.25;1.95;;;20.20;99.90;;;;;;5021318;28;20063;-68
2022/06/14 11:08:26;;;;;;;5.65;1.77;;;20.30;99.90;;;;;;5002388;28;20056;-68
2022/06/14 11:10:58;;;;;;;6.78;1.90;;;20.20;99.90;;;;;;4997079;28;20037;-68
2022/06/14 11:13:55;;;;;;;4.25;1.50;;;20.10;99.90;;;;;;4999358;28;20108;-68
2022/06/14 11:16:39;;;;;;;2.90;1.52;;;20.40;99.90;;;;;;5017830;28;20045;-68
2022/06/14 11:19:11;;;;;;;4.43;1.60;;;20.50;99.90;;;;;;4981855;28;20153;-68
2022/06/14 11:22:01;;;;;;;7.78;1.58;;;20.50;99.90;;;;;;4984091;28;20098;-68
2022/06/14 11:24:52;;;;;;;4.50;1.90;;;20.50;99.90;;;;;;5010835;28;20060;-67
2022/06/14 11:27:44;;;;;;;5.70;1.73;;;20.60;99.90;;;;;;4975620;28;20497;-68
2022/06/14 11:30:29;;;;;;;7.88;1.92;;;20.50;99.90;;;;;;4999548;28;20132;-68
2022/06/14 11:33:25;;;;;;;5.82;2.17;;;20.40;99.90;;;;;;5007886;28;20054;-68
2022/06/14 11:35:58;;;;;;;3.25;1.70;;;20.20;99.90;;;;;;4988157;28;20134;-68
2022/06/14 11:38:43;;;;;;;5.15;2.00;;;20.10;99.90;;;;;;4981528;28;20050;-68
2022/06/14 11:41:12;;;;;;;4.93;2.10;;;20.10;99.90;;;;;;4993450;28;20057;-69
2022/06/14 11:43:53;;;;;;;7.32;1.77;;;20.10;99.90;;;;;;4990785;28;20502;-68
2022/06/14 11:46:44;;;;;;;5.65;1.98;;;20.10;99.90;;;;;;4989398;28;20056;-68
2022/06/14 11:49:27;;;;;;;3.78;1.80;;;20.20;99.90;;;;;;5002763;28;20507;-68
2022/06/14 11:52:11;;;;;;;3.95;1.60;;;20.20;99.90;;;;;;4973893;28;20041;-68
2022/06/14 11:54:53;;;;;;;6.65;2.30;;;20.20;99.90;;;;;;5002594;28;20045;-68
2022/06/14 11:57:44;;;;;;;5.95;1.92;;;20.10;99.90;;;;;;4998724;28;20037;-68
2022/06/14 12:00:30;;;;;;;5.43;2.40;;;20.30;99.90;;;;;;5001273;28;20545;-69
2022/06/14 12:03:08;;;;;;;6.18;1.90;;;20.70;99.90;;;;;;4976156;28;20045;-67
2022/06/14 12:05:44;;;;;;;5.80;1.70;;;21.00;99.90;;;;;;4993355;28;20053;-68
2022/06/14 12:08:55;;;;;;;7.97;2.00;;;21.10;99.90;;;;;;4998210;28;20045;-68
2022/06/14 12:11:24;;;;;;;5.97;2.03;;;21.10;99.90;;;;;;4993281;28;21547;-67
2022/06/14 12:14:27;;;;;;;4.50;1.80;;;21.10;99.90;;;;;;5003442;28;20041;-67
2022/06/14 12:17:04;;;;;;;4.70;1.73;;;20.90;99.90;;;;;;4987657;28;20521;-67
2022/06/14 12:19:33;;;;;;;6.30;1.92;;;21.00;99.90;;;;;;5025525;28;20045;-67
2022/06/14 12:22:26;;;;;;;5.78;2.40;;;21.10;99.90;;;;;;5027918;28;20052;-68
2022/06/14 12:27:41;;;;;;;4.25;1.90;;;21.20;99.90;;;;;;5026671;28;20045;-66
2022/06/14 12:30:09;;;;;;;4.65;1.73;;;21.30;99.90;;;;;;5030929;28;20052;-67
2022/06/14 12:32:41;;;;;;;5.20;1.73;;;21.50;99.90;;;;;;5011258;28;20037;-67
2022/06/14 12:35:19;;;;;;;2.90;1.47;;;21.60;99.90;;;;;;5009449;28;20081;-68
2022/06/14 12:38:03;;;;;;;6.35;1.90;;;21.60;99.90;;;;;;5010667;28;20048;-67
2022/06/14 12:40:50;;;;;;;5.57;2.28;;;21.70;99.90;;;;;;5023235;28;20037;-68
2022/06/14 12:44:01;;;;;;;5.38;1.88;;;21.80;99.90;;;;;;5028164;28;20396;-67
2022/06/14 12:46:31;;;;;;;5.43;1.83;;;21.80;99.90;;;;;;4970432;28;20045;-67
2022/06/14 12:49:07;;;;;;;7.95;1.92;;;21.80;99.90;;;;;;5009187;28;20045;-66
2022/06/14 12:51:49;;;;;;;5.95;2.03;;;21.80;99.90;;;;;;5029921;28;20057;-67
2022/06/14 12:54:49;;;;;;;9.68;2.20;;;21.90;99.90;;;;;;5008940;28;20048;-67
2022/06/14 12:57:45;;;;;;;3.95;1.80;;;21.80;99.90;;;;;;5025649;28;20037;-67
2022/06/14 13:00:19;;;;;;;8.95;2.00;;;21.80;99.90;;;;;;5015972;28;20176;-67
2022/06/14 13:02:56;;;;;;;8.00;2.45;;;21.80;99.90;;;;;;5009218;28;20045;-67
2022/06/14 13:05:27;;;;;;;4.97;1.73;;;21.80;99.90;;;;;;5021887;28;20042;-68
2022/06/14 13:08:04;;;;;;;5.18;1.88;;;21.80;99.90;;;;;;5014349;28;20472;-68
2022/06/14 13:10:52;;;;;;;4.25;1.98;;;21.70;99.90;;;;;;5026121;28;20052;-67
2022/06/14 13:13:40;;;;;;;6.32;2.22;;;21.70;99.90;;;;;;5020851;28;20054;-67
2022/06/14 13:16:33;;;;;;;4.55;1.88;;;21.60;99.90;;;;;;5023386;28;20053;-68
2022/06/14 13:19:28;;;;;;;6.60;2.00;;;21.60;99.90;;;;;;5032832;28;20057;-67
2022/06/14 13:22:20;;;;;;;7.00;2.10;;;21.50;99.90;;;;;;5023107;28;20049;-68
2022/06/14 13:25:00;;;;;;;6.55;2.10;;;21.50;99.90;;;;;;4990341;28;20682;-68
2022/06/14 13:27:39;;;;;;;6.13;2.17;;;21.50;99.90;;;;;;5000126;28;20969;-68
2022/06/14 13:30:19;;;;;;;6.00;2.28;;;21.50;99.90;;;;;;5026223;28;20037;-68
2022/06/14 13:33:05;;;;;;;7.25;2.28;;;21.60;99.90;;;;;;5005494;28;20057;-67
2022/06/14 13:35:31;;;;;;;5.35;1.80;;;21.60;99.90;;;;;;5026488;28;20118;-67
2022/06/14 13:38:12;;;;;;;5.15;2.00;;;21.60;99.90;;;;;;5026426;28;20161;-67
2022/06/14 13:40:41;;;;;;;5.93;2.10;;;21.50;99.90;;;;;;4989496;28;20048;-67
2022/06/14 13:43:34;;;;;;;8.02;1.92;;;21.60;99.90;;;;;;5023090;28;20060;-67
2022/06/14 13:46:02;;;;;;;3.92;2.00;;;21.60;99.90;;;;;;5014503;28;20184;-67
2022/06/14 13:48:51;;;;;;;5.55;2.22;;;21.50;99.90;;;;;;5011432;28;20049;-69
2022/06/14 13:51:38;;;;;;;4.75;1.90;;;21.50;99.90;;;;;;5001788;28;20085;-68
2022/06/14 13:54:28;;;;;;;4.90;2.10;;;21.30;99.90;;;;;;4987126;28;20088;-69
2022/06/14 13:57:13;;;;;;;8.35;2.95;;;21.20;99.90;;;;;;5027920;28;20041;-69
2022/06/14 13:59:46;;;;;;;5.03;2.00;;;21.20;99.90;;;;;;5013510;28;20392;-69